createdAt,value
2023-05-06T00:02:15.950Z,97164.34
2023-05-06T00:07:18.102Z,97164.53
2023-05-06T00:12:20.327Z,97170.50
2023-05-06T00:17:22.253Z,97157.97
2023-05-06T00:22:24.949Z,97156.13
2023-05-06T00:27:27.007Z,97138.69
2023-05-06T00:32:28.730Z,97146.47
2023-05-06T00:37:30.687Z,97137.00
2023-05-06T00:42:33.277Z,97136.47
2023-05-06T00:47:35.716Z,97140.53
2023-05-06T00:52:37.925Z,97134.41
2023-05-06T00:57:40.347Z,97133.81
2023-05-06T01:02:47.618Z,97122.28
2023-05-06T01:07:56.126Z,97116.84
2023-05-06T01:13:03.833Z,97116.19
2023-05-06T01:18:10.722Z,97110.66
2023-05-06T01:23:14.888Z,97117.81
2023-05-06T01:28:17.349Z,97110.16
2023-05-06T01:33:50.637Z,97114.09
2023-05-06T01:39:04.861Z,97113.16
2023-05-06T01:44:07.865Z,97127.06
2023-05-06T01:49:11.556Z,97126.56
2023-05-06T01:54:13.328Z,97129.94
2023-05-06T01:59:15.518Z,97133.28
2023-05-06T02:04:17.250Z,97136.94
2023-05-06T02:09:19.098Z,97134.19
2023-05-06T02:14:27.284Z,97149.22
2023-05-06T02:19:29.779Z,97145.47
2023-05-06T02:24:32.238Z,97141.38
2023-05-06T02:29:34.385Z,97140.13
2023-05-06T02:34:37.847Z,97124.09
2023-05-06T02:39:39.495Z,97132.31
2023-05-06T02:44:42.690Z,97136.16
2023-05-06T02:49:44.464Z,97136.84
2023-05-06T02:54:47.870Z,97137.44
2023-05-06T02:59:49.786Z,97123.44
2023-05-06T03:04:51.775Z,97112.63
2023-05-06T03:09:53.758Z,97118.75
2023-05-06T03:14:56.032Z,97119.34
2023-05-06T03:19:57.951Z,97118.28
2023-05-06T03:24:59.739Z,97117.69
2023-05-06T03:30:04.090Z,97117.97
2023-05-06T03:35:07.443Z,97117.78
2023-05-06T03:40:09.721Z,97128.03
2023-05-06T03:45:12.000Z,97127.56
2023-05-06T03:50:14.058Z,97131.00
2023-05-06T03:55:17.140Z,97137.66
2023-05-06T04:00:19.261Z,97131.38
2023-05-06T04:05:25.610Z,97132.19
2023-05-06T04:10:27.907Z,97125.56
2023-05-06T04:15:36.471Z,97123.09
2023-05-06T04:20:41.560Z,97122.22
2023-05-06T04:25:48.669Z,97125.72
2023-05-06T04:30:52.775Z,97144.94
2023-05-06T04:35:58.003Z,97152.63
2023-05-06T04:41:01.618Z,97175.31
2023-05-06T04:46:03.732Z,97162.66
2023-05-06T04:51:09.277Z,97171.91
2023-05-06T04:56:12.237Z,97174.38
2023-05-06T05:01:14.927Z,97164.09
2023-05-06T05:06:16.853Z,97170.88
2023-05-06T05:11:20.163Z,97177.06
2023-05-06T05:16:21.856Z,97179.25
2023-05-06T05:21:24.502Z,97182.59
2023-05-06T05:26:26.656Z,97184.91
2023-05-06T05:31:31.251Z,97174.63
2023-05-06T05:36:33.978Z,97180.75
2023-05-06T05:41:38.942Z,97179.34
2023-05-06T05:46:41.774Z,97179.78
2023-05-06T05:51:45.184Z,97188.22
2023-05-06T05:56:50.590Z,97180.44
2023-05-06T06:01:52.755Z,97182.34
2023-05-06T06:06:57.820Z,97189.72
2023-05-06T06:11:59.997Z,97191.34
2023-05-06T06:17:02.662Z,97190.16
2023-05-06T06:22:04.919Z,97191.13
2023-05-06T06:27:09.272Z,97185.53
2023-05-06T06:32:11.552Z,97185.97
2023-05-06T06:37:14.563Z,97200.72
2023-05-06T06:42:16.277Z,97202.38
2023-05-06T06:47:26.110Z,97212.22
2023-05-06T06:52:27.848Z,97218.41
2023-05-06T06:57:29.555Z,97220.94
2023-05-06T07:02:32.644Z,97218.47
2023-05-06T07:07:34.361Z,97222.81
2023-05-06T07:12:36.373Z,97233.78
2023-05-06T07:17:38.452Z,97228.97
2023-05-06T07:22:41.226Z,97231.91
2023-05-06T07:27:43.012Z,97236.00
2023-05-06T07:32:44.817Z,97234.47
2023-05-06T07:37:46.829Z,97234.59
2023-05-06T07:42:48.518Z,97243.44
2023-05-06T07:47:50.481Z,97255.03
2023-05-06T07:52:52.310Z,97258.41
2023-05-06T07:57:56.050Z,97265.78
2023-05-06T08:02:58.782Z,97265.72
2023-05-06T08:08:00.948Z,97265.44
2023-05-06T08:13:03.253Z,97274.47
2023-05-06T08:18:20.785Z,97272.81
2023-05-06T08:23:24.050Z,97277.88
2023-05-06T08:28:25.947Z,97281.75
2023-05-06T08:33:27.974Z,97286.34
2023-05-06T08:38:30.832Z,97287.56
2023-05-06T08:43:40.097Z,97284.53
2023-05-06T08:48:42.186Z,97289.16
2023-05-06T08:53:48.383Z,97286.38
2023-05-06T08:58:51.970Z,97279.63
2023-05-06T09:03:55.464Z,97278.09
2023-05-06T09:08:57.655Z,97279.84
2023-05-06T09:14:12.297Z,97279.75
2023-05-06T09:19:16.329Z,97278.91
2023-05-06T09:24:18.165Z,97275.72
2023-05-06T09:29:19.841Z,97280.03
2023-05-06T09:34:22.659Z,97282.34
2023-05-06T09:39:27.694Z,97267.22
2023-05-06T09:44:29.406Z,97267.28
2023-05-06T09:49:31.628Z,97257.13
2023-05-06T09:54:34.496Z,97263.44
2023-05-06T09:59:36.668Z,97267.72
2023-05-06T10:04:41.040Z,97264.22
2023-05-06T10:09:42.975Z,97269.25
2023-05-06T10:14:44.724Z,97255.63
2023-05-06T10:19:48.902Z,97251.56
2023-05-06T10:25:10.997Z,97259.59
2023-05-06T10:30:17.124Z,97244.78
2023-05-06T10:35:30.058Z,97236.72
2023-05-06T10:40:32.461Z,97232.66
2023-05-06T10:46:09.032Z,97227.25
2023-05-06T10:51:20.330Z,97214.91
2023-05-06T10:56:22.287Z,97219.81
2023-05-06T11:01:28.080Z,97218.81
2023-05-06T11:06:34.209Z,97206.91
2023-05-06T11:12:02.654Z,97210.19
2023-05-06T11:17:07.712Z,97207.41
2023-05-06T11:22:39.040Z,97203.44
2023-05-06T11:27:41.864Z,97200.03
2023-05-06T11:32:44.038Z,97203.63
2023-05-06T11:37:46.069Z,97202.19
2023-05-06T11:42:47.725Z,97202.31
2023-05-06T11:47:49.382Z,97200.22
2023-05-06T11:52:51.825Z,97195.09
2023-05-06T11:57:53.864Z,97204.75
2023-05-06T12:02:56.803Z,97192.56
2023-05-06T12:07:59.233Z,97189.38
2023-05-06T12:13:01.311Z,97200.06
2023-05-06T12:18:04.569Z,97198.44
2023-05-06T12:23:11.230Z,97191.97
2023-05-06T12:28:20.886Z,97180.38
2023-05-06T12:33:23.237Z,97176.13
2023-05-06T12:38:25.233Z,97182.56
2023-05-06T12:43:31.321Z,97170.28
2023-05-06T12:48:33.621Z,97186.22
2023-05-06T12:53:35.758Z,97175.94
2023-05-06T12:58:38.529Z,97168.63
2023-05-06T13:03:41.325Z,97163.63
2023-05-06T13:08:43.739Z,97162.75
2023-05-06T13:13:45.556Z,97157.41
2023-05-06T13:18:47.211Z,97154.25
2023-05-06T13:23:49.365Z,97153.59
2023-05-06T13:28:51.548Z,97147.81
2023-05-06T13:33:53.776Z,97135.09
2023-05-06T13:38:56.173Z,97129.31
2023-05-06T13:43:57.794Z,97125.13
2023-05-06T13:48:59.481Z,97121.19
2023-05-06T13:54:02.416Z,97117.75
2023-05-06T13:59:04.239Z,97117.13
2023-05-06T14:04:06.458Z,97110.66
2023-05-06T14:09:08.092Z,97107.91
2023-05-06T14:14:09.759Z,97109.22
2023-05-06T14:19:11.536Z,97102.03
2023-05-06T14:24:13.468Z,97088.56
2023-05-06T14:29:15.141Z,97085.53
2023-05-06T14:34:16.817Z,97093.91
2023-05-06T14:39:18.744Z,97095.06
2023-05-06T14:44:21.547Z,97084.81
2023-05-06T14:49:24.859Z,97083.19
2023-05-06T14:54:29.173Z,97075.03
2023-05-06T14:59:31.030Z,97079.13
2023-05-06T15:04:33.083Z,97082.72
2023-05-06T15:09:43.967Z,97080.41
2023-05-06T15:14:45.736Z,97066.44
2023-05-06T15:19:48.166Z,97071.09
2023-05-06T15:24:49.816Z,97066.09
2023-05-06T15:29:51.476Z,97063.47
2023-05-06T15:34:53.092Z,97062.63
2023-05-06T15:39:54.771Z,97062.09
2023-05-06T15:44:57.705Z,97066.69
2023-05-06T15:49:59.810Z,97064.09
2023-05-06T15:55:01.781Z,97062.41
2023-05-06T16:00:05.155Z,97072.22
2023-05-06T16:05:09.632Z,97063.78
2023-05-06T16:10:11.995Z,97055.78
2023-05-06T16:15:13.885Z,97057.94
2023-05-06T16:20:15.673Z,97061.09
2023-05-06T16:25:17.458Z,97055.47
2023-05-06T16:30:19.481Z,97052.28
2023-05-06T16:35:21.177Z,97050.97
2023-05-06T16:40:22.877Z,97056.16
2023-05-06T16:45:27.015Z,97061.47
2023-05-06T16:50:29.136Z,97054.97
2023-05-06T16:55:30.770Z,97048.25
2023-05-06T17:00:32.695Z,97054.59
2023-05-06T17:05:34.632Z,97058.19
2023-05-06T17:10:36.402Z,97053.63
2023-05-06T17:15:38.434Z,97058.50
2023-05-06T17:20:54.420Z,97049.16
2023-05-06T17:25:58.130Z,97041.03
2023-05-06T17:30:59.866Z,97037.88
2023-05-06T17:36:01.888Z,97037.50
2023-05-06T17:41:03.664Z,97039.19
2023-05-06T17:46:06.764Z,97040.72
2023-05-06T17:51:08.597Z,97051.81
2023-05-06T17:56:10.312Z,97053.06
2023-05-06T18:01:12.140Z,97057.72
2023-05-06T18:06:13.967Z,97061.66
2023-05-06T18:11:17.152Z,97056.22
2023-05-06T18:16:19.161Z,97051.72
2023-05-06T18:21:21.144Z,97056.50
2023-05-06T18:26:42.727Z,97059.34
2023-05-06T18:31:44.867Z,97064.16
2023-05-06T18:36:46.893Z,97073.81
2023-05-06T18:41:48.627Z,97072.84
2023-05-06T18:46:50.948Z,97074.31
2023-05-06T18:51:54.047Z,97074.13
2023-05-06T18:56:56.083Z,97087.38
2023-05-06T19:01:57.851Z,97077.47
2023-05-06T19:06:59.553Z,97089.16
2023-05-06T19:12:01.273Z,97095.50
2023-05-06T19:17:03.635Z,97092.22
2023-05-06T19:22:05.735Z,97095.69
2023-05-06T19:27:08.133Z,97092.56
2023-05-06T19:32:09.782Z,97099.16
2023-05-06T19:37:11.441Z,97099.63
2023-05-06T19:42:13.256Z,97103.66
2023-05-06T19:47:15.039Z,97098.28
2023-05-06T19:52:16.680Z,97104.75
2023-05-06T19:57:19.429Z,97100.25
2023-05-06T20:02:21.427Z,97109.50
2023-05-06T20:07:23.256Z,97099.34
2023-05-06T20:12:28.425Z,97106.13
2023-05-06T20:17:30.641Z,97108.84
2023-05-06T20:22:32.693Z,97110.25
2023-05-06T20:27:34.382Z,97108.91
2023-05-06T20:32:37.185Z,97109.13
2023-05-06T20:37:39.170Z,97110.53
2023-05-06T20:42:41.019Z,97107.94
2023-05-06T20:47:42.938Z,97103.63
2023-05-06T20:52:47.124Z,97102.06
2023-05-06T20:57:49.286Z,97103.75
2023-05-06T21:02:51.186Z,97110.16
2023-05-06T21:07:53.082Z,97108.72
2023-05-06T21:12:54.809Z,97111.09
2023-05-06T21:17:56.606Z,97108.28
2023-05-06T21:22:58.909Z,97106.13
2023-05-06T21:28:05.340Z,97106.41
2023-05-06T21:33:08.329Z,97115.78
2023-05-06T21:38:10.820Z,97112.94
2023-05-06T21:43:12.751Z,97100.16
2023-05-06T21:48:14.569Z,97102.66
2023-05-06T21:53:16.361Z,97105.06
2023-05-06T21:58:18.503Z,97100.06
2023-05-06T22:03:20.421Z,97109.09
2023-05-06T22:08:22.197Z,97114.06
2023-05-06T22:13:26.434Z,97109.16
2023-05-06T22:18:29.926Z,97106.94
2023-05-06T22:23:31.745Z,97114.66
2023-05-06T22:28:33.363Z,97111.28
2023-05-06T22:33:35.053Z,97111.78
2023-05-06T22:38:36.671Z,97105.72
2023-05-06T22:43:38.697Z,97112.41
2023-05-06T22:48:40.510Z,97104.22
2023-05-06T22:53:42.323Z,97099.47
2023-05-06T22:58:44.164Z,97107.69
2023-05-06T23:03:45.943Z,97098.72
2023-05-06T23:08:47.765Z,97099.75
2023-05-06T23:13:49.529Z,97108.19
2023-05-06T23:18:51.355Z,97104.28
2023-05-06T23:23:53.051Z,97102.66
2023-05-06T23:28:54.748Z,97096.13
2023-05-06T23:33:56.429Z,97090.66
2023-05-06T23:38:58.129Z,97085.84
2023-05-06T23:43:59.818Z,97092.16
2023-05-06T23:49:01.533Z,97101.75
2023-05-06T23:54:03.318Z,97094.06
2023-05-06T23:59:05.073Z,97101.66
